Arima Maru — JD3917 — position and weather

sailwx.info

Track history (hours):
 
Tides and Currents Weather Stations Pressure Air Temp Water Temp Dewpoint Dewpoint Depression Visibility Wind Speed Wind Dir Waves Ship Positions

Arima Maru

Last reported at 2017-Oct-19 14:00 UTC. Time now 2017-Oct-19 14:41 UTC.
Position N 35°17' E 139°41'.

Length 40 m; draft 3 m.

Type: Tug. MMSI: 431006958.

Date/timePositionNaut miles runAvg speedWind from/ knotsBaromVisibWave heightAir tempDewpointWater temp
2017-Oct-19 14:00N 35°17' E 139°41'0 0.0
2017-Oct-19 13:30N 35°17' E 139°41'3 5.8
2017-Oct-19 13:00N 35°17' E 139°44'5 9.5
2017-Oct-19 12:30N 35°13' E 139°46'510.3
2017-Oct-19 12:00N 35°18' E 139°44'612.2
2017-Oct-19 11:30N 35°23' E 139°43'1 2.6
2017-Oct-19 11:00N 35°24' E 139°44'0 0.0
2017-Oct-19 10:30N 35°24' E 139°44'0 0.0
2017-Oct-19 10:01N 35°24' E 139°44'0 0.0
2017-Oct-19 09:30N 35°24' E 139°44'0 0.0
2017-Oct-19 09:01N 35°24' E 139°44'0 0.0
2017-Oct-19 08:31N 35°24' E 139°44'2 4.8
2017-Oct-19 08:00N 35°22' E 139°42'5 9.7
2017-Oct-19 07:30N 35°18' E 139°45'612.2
2017-Oct-19 07:00N 35°12' E 139°47'2 3.1
2017-Oct-19 06:30N 35°11' E 139°47'2 3.3
2017-Oct-19 06:01N 35°12' E 139°46'4 8.6
2017-Oct-19 05:30N 35°16' E 139°45'4 7.0
2017-Oct-19 05:00N 35°17' E 139°41'0 0.3
2017-Oct-19 04:30N 35°17' E 139°41'0 0.0
2017-Oct-19 04:00N 35°17' E 139°41'0 0.0
2017-Oct-19 03:30N 35°17' E 139°41'0 0.0
2017-Oct-19 03:00N 35°17' E 139°41'0 0.0
2017-Oct-19 02:30N 35°17' E 139°41'0 0.1
2017-Oct-19 02:01N 35°17' E 139°41'0 0.1
2017-Oct-19 01:30N 35°17' E 139°41'0 0.1
2017-Oct-19 01:01N 35°17' E 139°41'0 0.0
2017-Oct-19 00:31N 35°17' E 139°41'0 0.0
2017-Oct-19 00:00N 35°17' E 139°41'0 0.0
2017-Oct-18 23:30N 35°17' E 139°41'0 0.0
2017-Oct-18 23:00N 35°17' E 139°41'0 0.0
2017-Oct-18 22:31N 35°17' E 139°41'0 0.0
2017-Oct-18 22:00N 35°17' E 139°41'0 0.0
2017-Oct-18 21:31N 35°17' E 139°41'0 0.0
2017-Oct-18 21:01N 35°17' E 139°41'0 0.0
2017-Oct-18 20:31N 35°17' E 139°41'0 0.0
2017-Oct-18 20:00N 35°17' E 139°41'0 0.0
2017-Oct-18 19:31N 35°17' E 139°41'0 0.0
2017-Oct-18 19:00N 35°17' E 139°41'0 0.0
2017-Oct-18 18:31N 35°17' E 139°41'0 0.0
2017-Oct-18 18:00N 35°17' E 139°41'0 0.0
2017-Oct-18 17:30N 35°17' E 139°41'0 0.0
2017-Oct-18 17:00N 35°17' E 139°41'0 0.0
2017-Oct-18 16:30N 35°17' E 139°41'0 0.0
2017-Oct-18 16:00N 35°17' E 139°41'0 0.0
2017-Oct-18 15:30N 35°17' E 139°41'0 0.0
2017-Oct-18 15:00N 35°17' E 139°41'0 0.0
2017-Oct-18 14:00N 35°17' E 139°41'0 0.0
2017-Oct-18 13:30N 35°17' E 139°41'0 0.0
2017-Oct-18 13:00N 35°17' E 139°41'0 0.0
2017-Oct-18 12:30N 35°17' E 139°41'0 0.0
2017-Oct-18 12:00N 35°17' E 139°41'0 0.0
2017-Oct-18 11:30N 35°17' E 139°41'0 0.0
2017-Oct-18 10:59N 35°17' E 139°41'0 0.0
2017-Oct-18 10:30N 35°17' E 139°41'0 0.0
2017-Oct-18 10:01N 35°17' E 139°41'0 0.0
2017-Oct-18 09:30N 35°17' E 139°41'0 0.0
2017-Oct-18 09:00N 35°17' E 139°41'0 0.0
2017-Oct-18 08:30N 35°17' E 139°41'0 0.0
2017-Oct-18 08:01N 35°17' E 139°41'0 0.0
2017-Oct-18 07:30N 35°17' E 139°41'0 0.0
2017-Oct-18 07:01N 35°17' E 139°41'0 0.0
2017-Oct-18 06:30N 35°17' E 139°41'0 0.0
2017-Oct-18 06:00N 35°17' E 139°41'0 0.0
2017-Oct-18 05:30N 35°17' E 139°41'0 0.0
2017-Oct-18 05:00N 35°17' E 139°41'0 0.0
2017-Oct-18 04:30N 35°17' E 139°41'0 0.0
2017-Oct-18 04:00N 35°17' E 139°41'0 0.0
2017-Oct-18 03:30N 35°17' E 139°41'2 4.6
2017-Oct-18 03:01N 35°17' E 139°43'510.3
2017-Oct-18 02:30N 35°12' E 139°46'611.0
2017-Oct-18 02:00N 35°18' E 139°44'612.0
2017-Oct-18 01:30N 35°23' E 139°43'713.4
2017-Oct-18 01:00N 35°28' E 139°49'4 1.7
2017-Oct-17 22:49N 35°27' E 139°53'410.9
2017-Oct-17 22:29N 35°25' E 139°50'510.8
2017-Oct-17 22:00N 35°21' E 139°46'510.3
2017-Oct-17 21:31N 35°17' E 139°41'1 1.2
2017-Oct-17 21:00N 35°17' E 139°41'0 0.0
2017-Oct-17 20:30N 35°17' E 139°41'0 0.0
2017-Oct-17 20:00N 35°17' E 139°41'0 0.0
2017-Oct-17 19:30N 35°17' E 139°41'0 0.0
2017-Oct-17 19:00N 35°17' E 139°41'0 0.0
2017-Oct-17 18:30N 35°17' E 139°41'0 0.0
2017-Oct-17 18:00N 35°17' E 139°41'0 0.0
2017-Oct-17 17:30N 35°17' E 139°41'0 0.0
2017-Oct-17 17:00N 35°17' E 139°41'0 0.0
2017-Oct-17 16:30N 35°17' E 139°41'0 0.0
2017-Oct-17 16:00N 35°17' E 139°41'0 0.0
2017-Oct-17 15:30N 35°17' E 139°41'0 0.0
2017-Oct-17 15:00N 35°17' E 139°41'0 0.0
2017-Oct-17 14:30N 35°17' E 139°41'0 0.0
2017-Oct-17 14:00N 35°17' E 139°41'0 0.0
2017-Oct-17 13:30N 35°17' E 139°41'1 1.0
2017-Oct-17 13:01N 35°17' E 139°41'5 9.1
2017-Oct-17 12:30N 35°14' E 139°46'1 1.3
2017-Oct-17 12:00N 35°14' E 139°46'612.2
2017-Oct-17 11:30N 35°20' E 139°43'4 7.9
2017-Oct-17 11:00N 35°23' E 139°41'1 2.5
2017-Oct-17 10:30N 35°24' E 139°39'1 1.1
2017-Oct-17 10:00N 35°23' E 139°40'0 0.0
2017-Oct-17 09:30N 35°23' E 139°40'0 0.0
2017-Oct-17 09:00N 35°23' E 139°40'0 0.0
2017-Oct-17 08:30N 35°23' E 139°40'0 0.0
2017-Oct-17 08:00N 35°23' E 139°40'1 1.1
2017-Oct-17 07:30N 35°23' E 139°40'611.2
2017-Oct-17 07:00N 35°18' E 139°43'611.0
2017-Oct-17 06:30N 35°13' E 139°46'5 8.5
2017-Oct-17 05:57N 35°17' E 139°45'512.3
2017-Oct-17 05:30N 35°22' E 139°42'510.5
2017-Oct-17 05:01N 35°27' E 139°45'1 1.1
2017-Oct-17 04:30N 35°28' E 139°44'0 0.7
2017-Oct-17 04:00N 35°28' E 139°44'0 0.0
2017-Oct-17 03:30N 35°28' E 139°44'0 0.0
2017-Oct-17 03:00N 35°28' E 139°44'2 3.0
2017-Oct-17 02:30N 35°27' E 139°46'1 1.9
2017-Oct-17 02:00N 35°27' E 139°47'2 3.2
2017-Oct-17 01:30N 35°26' E 139°47'510.2
2017-Oct-17 01:00N 35°21' E 139°45'5 9.7
2017-Oct-17 00:30N 35°16' E 139°46'510.1
2017-Oct-17 00:00N 35°11' E 139°47'1 1.4
2017-Oct-16 23:31N 35°11' E 139°47'4 7.0
2017-Oct-16 23:00N 35°14' E 139°46'510.1
2017-Oct-16 22:30N 35°18' E 139°43'1 2.6
2017-Oct-16 22:00N 35°18' E 139°44'611.9
2017-Oct-16 21:30N 35°13' E 139°47'3 5.3
2017-Oct-16 21:00N 35°10' E 139°47'3 6.2
2017-Oct-16 20:30N 35°13' E 139°46'510.9
2017-Oct-16 20:00N 35°18' E 139°43'2 3.4
2017-Oct-16 19:30N 35°17' E 139°41'0 0.0
2017-Oct-16 19:00N 35°17' E 139°41'0 0.0
2017-Oct-16 18:30N 35°17' E 139°41'0 0.0
2017-Oct-16 18:00N 35°17' E 139°41'0 0.0
2017-Oct-16 17:30N 35°17' E 139°41'0 0.0
2017-Oct-16 16:59N 35°17' E 139°41'0 0.0
2017-Oct-16 16:30N 35°17' E 139°41'0 0.0
2017-Oct-16 15:51N 35°17' E 139°41'0 0.0
2017-Oct-16 15:30N 35°17' E 139°41'0 0.0
2017-Oct-16 15:00N 35°17' E 139°41'0 0.0
2017-Oct-16 14:27N 35°17' E 139°41'0 0.0
2017-Oct-16 13:26N 35°17' E 139°41'0 0.0
2017-Oct-16 12:59N 35°17' E 139°41'0 0.0
2017-Oct-16 12:30N 35°17' E 139°41'0 0.0
2017-Oct-16 11:52N 35°17' E 139°41'0 0.0
2017-Oct-16 11:30N 35°17' E 139°41'0 0.0
2017-Oct-16 10:59N 35°17' E 139°41'0 0.0
2017-Oct-16 10:30N 35°17' E 139°41'0 0.0
2017-Oct-16 10:00N 35°17' E 139°41'0 0.0
2017-Oct-16 09:27N 35°17' E 139°41'0 0.0
2017-Oct-16 09:00N 35°17' E 139°41'0 0.0
2017-Oct-16 08:28N 35°17' E 139°41'0 0.0
2017-Oct-16 08:00N 35°17' E 139°41'0 0.0
2017-Oct-16 07:29N 35°17' E 139°41'0 0.0
2017-Oct-16 07:00N 35°17' E 139°41'0 0.0
2017-Oct-16 06:30N 35°17' E 139°41'0 0.0
2017-Oct-16 06:00N 35°17' E 139°41'0 0.0
2017-Oct-16 05:30N 35°17' E 139°41'0 0.0
2017-Oct-16 05:00N 35°17' E 139°41'0 0.0
2017-Oct-16 04:30N 35°17' E 139°41'0 0.0
2017-Oct-16 04:00N 35°17' E 139°41'0 0.0
2017-Oct-16 03:30N 35°17' E 139°41'0 0.0
2017-Oct-16 03:00N 35°17' E 139°41'0 0.0
2017-Oct-16 02:30N 35°17' E 139°41'4 7.9
2017-Oct-16 02:00N 35°21' E 139°41'611.6
2017-Oct-16 01:30N 35°25' E 139°46'612.5
2017-Oct-16 01:00N 35°30' E 139°52'2 3.6
2017-Oct-16 00:30N 35°28' E 139°51'611.6
2017-Oct-16 00:00N 35°24' E 139°46'611.7
2017-Oct-15 23:30N 35°18' E 139°45'611.3
2017-Oct-15 23:00N 35°12' E 139°47'1 2.5
2017-Oct-15 22:31N 35°11' E 139°47'510.6
2017-Oct-15 22:00N 35°16' E 139°45'3 6.9
2017-Oct-15 21:30N 35°17' E 139°41'0 0.0
2017-Oct-15 21:01N 35°17' E 139°41'0 0.0
2017-Oct-15 20:30N 35°17' E 139°41'0 0.0
2017-Oct-15 20:00N 35°17' E 139°41'0 0.0
2017-Oct-15 19:30N 35°17' E 139°41'0 0.0
2017-Oct-15 19:01N 35°17' E 139°41'0 0.0
2017-Oct-15 18:31N 35°17' E 139°41'0 0.0
2017-Oct-15 18:00N 35°17' E 139°41'0 0.0
2017-Oct-15 17:30N 35°17' E 139°41'0 0.0
2017-Oct-15 17:01N 35°17' E 139°41'0 0.0
2017-Oct-15 16:31N 35°17' E 139°41'0 0.0
2017-Oct-15 16:00N 35°17' E 139°41'0 0.0
2017-Oct-15 15:30N 35°17' E 139°41'0 0.0
2017-Oct-15 15:00N 35°17' E 139°41'0 0.0
2017-Oct-15 14:00N 35°17' E 139°41'0 0.0
2017-Oct-15 13:30N 35°17' E 139°41'0 0.0
2017-Oct-15 13:00N 35°17' E 139°41'0 0.0
2017-Oct-15 12:31N 35°17' E 139°41'0 0.0
2017-Oct-15 12:01N 35°17' E 139°41'0 0.0
2017-Oct-15 11:30N 35°17' E 139°41'0 0.0
2017-Oct-15 11:00N 35°17' E 139°41'0 0.0
2017-Oct-15 10:30N 35°17' E 139°41'0 0.0
2017-Oct-15 10:01N 35°17' E 139°41'0 0.0
2017-Oct-15 09:30N 35°17' E 139°41'0 0.0
2017-Oct-15 09:00N 35°17' E 139°41'4 8.8
2017-Oct-15 08:30N 35°15' E 139°45'1 2.8
2017-Oct-15 08:00N 35°14' E 139°46'612.4
2017-Oct-15 07:30N 35°19' E 139°43'510.3
2017-Oct-15 07:00N 35°25' E 139°43'1 3.0
2017-Oct-15 06:30N 35°24' E 139°45'0 0.1
2017-Oct-15 06:00N 35°24' E 139°45'0 0.1
2017-Oct-15 05:30N 35°24' E 139°45'0 0.0
2017-Oct-15 05:00N 35°24' E 139°45'1 2.1
2017-Oct-15 04:30N 35°25' E 139°44'3 6.1
2017-Oct-15 04:00N 35°22' E 139°43'611.9
2017-Oct-15 03:30N 35°16' E 139°46'611.9
2017-Oct-15 03:00N 35°11' E 139°47'3 5.2
2017-Oct-15 02:30N 35°13' E 139°46'4 9.1
2017-Oct-15 02:00N 35°17' E 139°43'2 4.9
2017-Oct-15 01:30N 35°17' E 139°41'0 0.0
2017-Oct-15 01:00N 35°17' E 139°41'0 0.1
2017-Oct-15 00:30N 35°17' E 139°41'0 0.1
2017-Oct-15 00:00N 35°17' E 139°41'0 0.0
2017-Oct-14 23:30N 35°17' E 139°41'0 0.1
2017-Oct-14 23:00N 35°17' E 139°41'0 0.0
2017-Oct-14 22:30N 35°17' E 139°41'0 0.0
2017-Oct-14 22:00N 35°17' E 139°41'0 0.0
2017-Oct-14 21:30N 35°17' E 139°41'0 0.0
2017-Oct-14 21:00N 35°17' E 139°41'0 0.0
2017-Oct-14 20:29N 35°17' E 139°41'0 0.0
2017-Oct-14 20:00N 35°17' E 139°41'0 0.0
2017-Oct-14 19:30N 35°17' E 139°41'0 0.0
2017-Oct-14 19:00N 35°17' E 139°41'0 0.0
2017-Oct-14 18:30N 35°17' E 139°41'0 0.0
2017-Oct-14 18:00N 35°17' E 139°41'0 0.0
2017-Oct-14 17:30N 35°17' E 139°41'0 0.0
2017-Oct-14 17:00N 35°17' E 139°41'0 0.0
2017-Oct-14 16:30N 35°17' E 139°41'0 0.0
2017-Oct-14 16:00N 35°17' E 139°41'0 0.0
2017-Oct-14 15:30N 35°17' E 139°41'0 0.0
2017-Oct-14 15:00N 35°17' E 139°41'0 0.0
2017-Oct-14 14:30N 35°17' E 139°41'0 0.0
2017-Oct-14 14:00N 35°17' E 139°41'0 0.0
2017-Oct-14 13:30N 35°17' E 139°41'0 0.0
2017-Oct-14 13:00N 35°17' E 139°41'0 0.0
2017-Oct-14 12:30N 35°17' E 139°41'0 0.0
2017-Oct-14 12:00N 35°17' E 139°41'0 0.0
2017-Oct-14 11:30N 35°17' E 139°41'0 0.0
2017-Oct-14 11:00N 35°17' E 139°41'0 0.0
2017-Oct-14 10:30N 35°17' E 139°41'0 0.0
2017-Oct-14 10:00N 35°17' E 139°41'0 0.0
2017-Oct-14 09:30N 35°17' E 139°41'0 0.0
2017-Oct-14 09:00N 35°17' E 139°41'0 0.0
2017-Oct-14 08:29N 35°17' E 139°41'0 0.0
2017-Oct-14 08:00N 35°17' E 139°41'0 0.0
2017-Oct-14 07:30N 35°17' E 139°41'0 0.0
2017-Oct-14 07:00N 35°17' E 139°41'0 0.0
2017-Oct-14 06:30N 35°17' E 139°41'0 0.0
2017-Oct-14 05:59N 35°17' E 139°41'0 0.0
2017-Oct-14 05:30N 35°17' E 139°41'2 3.4
2017-Oct-14 05:00N 35°18' E 139°43'510.0
2017-Oct-14 04:30N 35°13' E 139°46'4 7.0
2017-Oct-14 04:00N 35°17' E 139°45'713.2
2017-Oct-14 03:31N 35°23' E 139°42'714.7
2017-Oct-14 03:00N 35°28' E 139°49'7 7.8
2017-Oct-14 02:03N 35°29' E 139°58'0 0.1
2017-Oct-14 01:56N 35°29' E 139°58'2 3.4
2017-Oct-14 01:21N 35°29' E 139°56'3 5.5
2017-Oct-14 00:53N 35°29' E 139°52'4 9.6
2017-Oct-14 00:29N 35°26' E 139°49'511.4
2017-Oct-14 00:00N 35°22' E 139°45'510.9
2017-Oct-13 23:30N 35°16' E 139°46'610.8
2017-Oct-13 23:00N 35°11' E 139°47'1 1.5
2017-Oct-13 22:30N 35°10' E 139°47'5 9.0
2017-Oct-13 22:00N 35°15' E 139°46'5 9.4
2017-Oct-13 21:30N 35°17' E 139°41'0 0.5
2017-Oct-13 21:00N 35°17' E 139°41'0 0.0
2017-Oct-13 20:30N 35°17' E 139°41'0 0.0
2017-Oct-13 20:01N 35°17' E 139°41'0 0.0
2017-Oct-13 19:30N 35°17' E 139°41'0 0.0
2017-Oct-13 19:00N 35°17' E 139°41'0 0.0
2017-Oct-13 18:30N 35°17' E 139°41'0 0.0
2017-Oct-13 18:01N 35°17' E 139°41'0 0.0
2017-Oct-13 17:30N 35°17' E 139°41'0 0.0
2017-Oct-13 17:01N 35°17' E 139°41'0 0.0
2017-Oct-13 16:30N 35°17' E 139°41'0 0.0
2017-Oct-13 16:01N 35°17' E 139°41'0 0.0
2017-Oct-13 15:30N 35°17' E 139°41'0 0.0
2017-Oct-13 15:00N 35°17' E 139°41'0 0.0
2017-Oct-13 14:30N 35°17' E 139°41'0 0.0
2017-Oct-13 14:00N 35°17' E 139°41'0 0.0
2017-Oct-13 13:31N 35°17' E 139°41'0 0.0
2017-Oct-13 13:00N 35°17' E 139°41'0 0.0
2017-Oct-13 12:30N 35°17' E 139°41'0 0.0
2017-Oct-13 12:00N 35°17' E 139°41'0 0.0
2017-Oct-13 11:31N 35°17' E 139°41'0 0.0
2017-Oct-13 11:00N 35°17' E 139°41'0 0.0
2017-Oct-13 10:30N 35°17' E 139°41'0 0.0
2017-Oct-13 10:00N 35°17' E 139°41'0 0.0
2017-Oct-13 09:31N 35°17' E 139°41'0 0.0
2017-Oct-13 09:01N 35°17' E 139°41'0 0.0
2017-Oct-13 08:30N 35°17' E 139°41'0 0.0
2017-Oct-13 08:01N 35°17' E 139°41'0 0.0
2017-Oct-13 07:30N 35°17' E 139°41'0 0.0
2017-Oct-13 07:01N 35°17' E 139°41'0 0.0
2017-Oct-13 06:30N 35°17' E 139°41'0 0.0
2017-Oct-13 06:00N 35°17' E 139°41'0 0.0
2017-Oct-13 05:31N 35°17' E 139°41'0 0.0
2017-Oct-13 05:00N 35°17' E 139°41'0 0.0
2017-Oct-13 04:30N 35°17' E 139°41'0 0.0
2017-Oct-13 04:00N 35°17' E 139°41'0 0.0
2017-Oct-13 03:30N 35°17' E 139°41'0 0.0
2017-Oct-13 03:00N 35°17' E 139°41'0 0.1
2017-Oct-13 02:30N 35°17' E 139°41'1 2.4
2017-Oct-13 02:00N 35°17' E 139°39'0 0.1
2017-Oct-13 01:30N 35°17' E 139°39'0 0.1
2017-Oct-13 01:00N 35°17' E 139°39'1 2.3
2017-Oct-13 00:31N 35°18' E 139°40'1 1.4
2017-Oct-13 00:00N 35°19' E 139°40'2 3.2
2017-Oct-12 23:30N 35°17' E 139°41'1 1.4
2017-Oct-12 23:00N 35°17' E 139°41'0 0.0
2017-Oct-12 22:30N 35°17' E 139°41'0 0.0
2017-Oct-12 22:01N 35°17' E 139°41'0 0.0
2017-Oct-12 21:30N 35°17' E 139°41'0 0.0
2017-Oct-12 21:00N 35°17' E 139°41'0 0.0
2017-Oct-12 20:30N 35°17' E 139°41'0 0.0
2017-Oct-12 20:00N 35°17' E 139°41'0 0.0
2017-Oct-12 19:30N 35°17' E 139°41'0 0.0
2017-Oct-12 19:00N 35°17' E 139°41'0 0.0
2017-Oct-12 18:30N 35°17' E 139°41'0 0.0
2017-Oct-12 17:58N 35°17' E 139°41'0 0.0
2017-Oct-12 17:30N 35°17' E 139°41'0 0.0
2017-Oct-12 16:59N 35°17' E 139°41'0 0.0
2017-Oct-12 16:30N 35°17' E 139°41'0 0.0
2017-Oct-12 16:00N 35°17' E 139°41'0 0.0
2017-Oct-12 15:31N 35°17' E 139°41'0 0.0
2017-Oct-12 15:00N 35°17' E 139°41'0 0.0
2017-Oct-12 14:30N 35°17' E 139°41'0 0.0
2017-Oct-12 13:59N 35°17' E 139°41'0 0.0
2017-Oct-12 13:30N 35°17' E 139°41'0 0.0
2017-Oct-12 13:00N 35°17' E 139°41'0 0.0
2017-Oct-12 12:30N 35°17' E 139°41'0 0.0
2017-Oct-12 12:01N 35°17' E 139°41'0 0.0
2017-Oct-12 11:30N 35°17' E 139°41'0 0.0
2017-Oct-12 10:50N 35°17' E 139°41'0 0.0
2017-Oct-12 10:20N 35°17' E 139°41'0 0.0
2017-Oct-12 09:56N 35°17' E 139°41'0 0.0
2017-Oct-12 09:30N 35°17' E 139°41'0 0.0
2017-Oct-12 09:00N 35°17' E 139°41'0 0.0
2017-Oct-12 08:30N 35°17' E 139°41'0 0.0
2017-Oct-12 08:00N 35°17' E 139°41'0 0.0
2017-Oct-12 07:30N 35°17' E 139°41'0 0.0
2017-Oct-12 07:01N 35°17' E 139°41'0 0.3
2017-Oct-12 06:31N 35°17' E 139°41'2 3.1
2017-Oct-12 06:00N 35°18' E 139°42'1 2.0
2017-Oct-12 05:30N 35°17' E 139°41'1 1.3
2017-Oct-12 04:58N 35°17' E 139°41'0 0.0
2017-Oct-12 04:28N 35°17' E 139°41'1 2.1
2017-Oct-12 04:00N 35°18' E 139°42'5 9.8
2017-Oct-12 03:30N 35°14' E 139°46'2 3.6
2017-Oct-12 03:00N 35°16' E 139°46'612.7
2017-Oct-12 02:30N 35°21' E 139°42'611.1
2017-Oct-12 02:00N 35°27' E 139°43'1 1.1
2017-Oct-12 01:30N 35°27' E 139°43'0 0.2
2017-Oct-12 01:00N 35°27' E 139°43'5 8.7
2017-Oct-12 00:25N 35°22' E 139°42'511.1
2017-Oct-12 00:00N 35°18' E 139°42'6 0.3
2017-Oct-11 00:00N 35°23' E 139°46'4 7.2
2017-Oct-10 23:30N 35°19' E 139°44'510.1
2017-Oct-10 23:00N 35°15' E 139°47'510.8
2017-Oct-10 22:30N 35°10' E 139°47'4 8.8
2017-Oct-10 22:00N 35°13' E 139°43'0 0.4
2017-Oct-10 21:30N 35°13' E 139°43'3 5.6
2017-Oct-10 21:00N 35°14' E 139°46'612.1
2017-Oct-10 20:30N 35°19' E 139°43'5 7.2
2017-Oct-10 19:49N 35°24' E 139°44'4 9.6
2017-Oct-10 19:26N 35°21' E 139°43'4 0.5
2017-Oct-10 12:24N 35°17' E 139°41'4 9.2
2017-Oct-10 12:00N 35°16' E 139°45'3 5.3
2017-Oct-10 11:30N 35°13' E 139°46'612.0
2017-Oct-10 11:00N 35°19' E 139°43'5 9.0
2017-Oct-10 10:27N 35°23' E 139°41'0 1.0
2017-Oct-10 09:59N 35°23' E 139°40'0 0.1
2017-Oct-10 07:29N 35°23' E 139°40'0 0.0
2017-Oct-10 07:00N 35°23' E 139°40'0 0.0
2017-Oct-10 06:30N 35°23' E 139°40'0 0.0
2017-Oct-10 06:00N 35°23' E 139°40'1 2.1
2017-Oct-10 05:30N 35°23' E 139°41'611.1
2017-Oct-10 05:00N 35°27' E 139°46'510.8
2017-Oct-10 04:30N 35°30' E 139°52'3 6.5
2017-Oct-10 04:00N 35°27' E 139°50'612.7
2017-Oct-10 03:30N 35°22' E 139°45'510.8
2017-Oct-10 03:00N 35°17' E 139°46'611.3
2017-Oct-10 02:30N 35°11' E 139°46'1 2.7
2017-Oct-10 02:00N 35°12' E 139°46'510.7
2017-Oct-10 01:30N 35°17' E 139°43'2 4.8
2017-Oct-10 01:00N 35°17' E 139°41'0 0.0
2017-Oct-10 00:30N 35°17' E 139°41'0 0.0
2017-Oct-10 00:00N 35°17' E 139°41'0 0.0
2017-Oct-09 23:28N 35°17' E 139°41'0 0.0
2017-Oct-09 23:00N 35°17' E 139°41'0 0.0
2017-Oct-09 22:30N 35°17' E 139°41'  
Track history (hours):
 
Tides and Currents Weather Stations Pressure Air Temp Water Temp Dewpoint Dewpoint Depression Visibility Wind Speed Wind Dir Waves Ship Positions

Arima Maru

Last reported at 2017-Oct-19 14:00 UTC. Time now 2017-Oct-19 14:41 UTC.
Position N 35°17' E 139°41'.

Length 40 m; draft 3 m.

Type: Tug. MMSI: 431006958.

Date/timePositionNaut miles runAvg speedWind from/ knotsBaromVisibWave heightAir tempDewpointWater temp
2017-Oct-19 14:00N 35°17' E 139°41'0 0.0
2017-Oct-19 13:30N 35°17' E 139°41'3 5.8
2017-Oct-19 13:00N 35°17' E 139°44'5 9.5
2017-Oct-19 12:30N 35°13' E 139°46'510.3
2017-Oct-19 12:00N 35°18' E 139°44'612.2
2017-Oct-19 11:30N 35°23' E 139°43'1 2.6
2017-Oct-19 11:00N 35°24' E 139°44'0 0.0
2017-Oct-19 10:30N 35°24' E 139°44'0 0.0
2017-Oct-19 10:01N 35°24' E 139°44'0 0.0
2017-Oct-19 09:30N 35°24' E 139°44'0 0.0
2017-Oct-19 09:01N 35°24' E 139°44'0 0.0
2017-Oct-19 08:31N 35°24' E 139°44'2 4.8
2017-Oct-19 08:00N 35°22' E 139°42'5 9.7
2017-Oct-19 07:30N 35°18' E 139°45'612.2
2017-Oct-19 07:00N 35°12' E 139°47'2 3.1
2017-Oct-19 06:30N 35°11' E 139°47'2 3.3
2017-Oct-19 06:01N 35°12' E 139°46'4 8.6
2017-Oct-19 05:30N 35°16' E 139°45'4 7.0
2017-Oct-19 05:00N 35°17' E 139°41'0 0.3
2017-Oct-19 04:30N 35°17' E 139°41'0 0.0
2017-Oct-19 04:00N 35°17' E 139°41'0 0.0
2017-Oct-19 03:30N 35°17' E 139°41'0 0.0
2017-Oct-19 03:00N 35°17' E 139°41'0 0.0
2017-Oct-19 02:30N 35°17' E 139°41'0 0.1
2017-Oct-19 02:01N 35°17' E 139°41'0 0.1
2017-Oct-19 01:30N 35°17' E 139°41'0 0.1
2017-Oct-19 01:01N 35°17' E 139°41'0 0.0
2017-Oct-19 00:31N 35°17' E 139°41'0 0.0
2017-Oct-19 00:00N 35°17' E 139°41'0 0.0
2017-Oct-18 23:30N 35°17' E 139°41'0 0.0
2017-Oct-18 23:00N 35°17' E 139°41'0 0.0
2017-Oct-18 22:31N 35°17' E 139°41'0 0.0
2017-Oct-18 22:00N 35°17' E 139°41'0 0.0
2017-Oct-18 21:31N 35°17' E 139°41'0 0.0
2017-Oct-18 21:01N 35°17' E 139°41'0 0.0
2017-Oct-18 20:31N 35°17' E 139°41'0 0.0
2017-Oct-18 20:00N 35°17' E 139°41'0 0.0
2017-Oct-18 19:31N 35°17' E 139°41'0 0.0
2017-Oct-18 19:00N 35°17' E 139°41'0 0.0
2017-Oct-18 18:31N 35°17' E 139°41'0 0.0
2017-Oct-18 18:00N 35°17' E 139°41'0 0.0
2017-Oct-18 17:30N 35°17' E 139°41'0 0.0
2017-Oct-18 17:00N 35°17' E 139°41'0 0.0
2017-Oct-18 16:30N 35°17' E 139°41'0 0.0
2017-Oct-18 16:00N 35°17' E 139°41'0 0.0
2017-Oct-18 15:30N 35°17' E 139°41'0 0.0
2017-Oct-18 15:00N 35°17' E 139°41'0 0.0
2017-Oct-18 14:00N 35°17' E 139°41'0 0.0
2017-Oct-18 13:30N 35°17' E 139°41'0 0.0
2017-Oct-18 13:00N 35°17' E 139°41'0 0.0
2017-Oct-18 12:30N 35°17' E 139°41'0 0.0
2017-Oct-18 12:00N 35°17' E 139°41'0 0.0
2017-Oct-18 11:30N 35°17' E 139°41'0 0.0
2017-Oct-18 10:59N 35°17' E 139°41'0 0.0
2017-Oct-18 10:30N 35°17' E 139°41'0 0.0
2017-Oct-18 10:01N 35°17' E 139°41'0 0.0
2017-Oct-18 09:30N 35°17' E 139°41'0 0.0
2017-Oct-18 09:00N 35°17' E 139°41'0 0.0
2017-Oct-18 08:30N 35°17' E 139°41'0 0.0
2017-Oct-18 08:01N 35°17' E 139°41'0 0.0
2017-Oct-18 07:30N 35°17' E 139°41'0 0.0
2017-Oct-18 07:01N 35°17' E 139°41'0 0.0
2017-Oct-18 06:30N 35°17' E 139°41'0 0.0
2017-Oct-18 06:00N 35°17' E 139°41'0 0.0
2017-Oct-18 05:30N 35°17' E 139°41'0 0.0
2017-Oct-18 05:00N 35°17' E 139°41'0 0.0
2017-Oct-18 04:30N 35°17' E 139°41'0 0.0
2017-Oct-18 04:00N 35°17' E 139°41'0 0.0
2017-Oct-18 03:30N 35°17' E 139°41'2 4.6
2017-Oct-18 03:01N 35°17' E 139°43'510.3
2017-Oct-18 02:30N 35°12' E 139°46'611.0
2017-Oct-18 02:00N 35°18' E 139°44'612.0
2017-Oct-18 01:30N 35°23' E 139°43'713.4
2017-Oct-18 01:00N 35°28' E 139°49'4 1.7
2017-Oct-17 22:49N 35°27' E 139°53'410.9
2017-Oct-17 22:29N 35°25' E 139°50'510.8
2017-Oct-17 22:00N 35°21' E 139°46'510.3
2017-Oct-17 21:31N 35°17' E 139°41'1 1.2
2017-Oct-17 21:00N 35°17' E 139°41'0 0.0
2017-Oct-17 20:30N 35°17' E 139°41'0 0.0
2017-Oct-17 20:00N 35°17' E 139°41'0 0.0
2017-Oct-17 19:30N 35°17' E 139°41'0 0.0
2017-Oct-17 19:00N 35°17' E 139°41'0 0.0
2017-Oct-17 18:30N 35°17' E 139°41'0 0.0
2017-Oct-17 18:00N 35°17' E 139°41'0 0.0
2017-Oct-17 17:30N 35°17' E 139°41'0 0.0
2017-Oct-17 17:00N 35°17' E 139°41'0 0.0
2017-Oct-17 16:30N 35°17' E 139°41'0 0.0
2017-Oct-17 16:00N 35°17' E 139°41'0 0.0
2017-Oct-17 15:30N 35°17' E 139°41'0 0.0
2017-Oct-17 15:00N 35°17' E 139°41'0 0.0
2017-Oct-17 14:30N 35°17' E 139°41'0 0.0
2017-Oct-17 14:00N 35°17' E 139°41'0 0.0
2017-Oct-17 13:30N 35°17' E 139°41'1 1.0
2017-Oct-17 13:01N 35°17' E 139°41'5 9.1
2017-Oct-17 12:30N 35°14' E 139°46'1 1.3
2017-Oct-17 12:00N 35°14' E 139°46'612.2
2017-Oct-17 11:30N 35°20' E 139°43'4 7.9
2017-Oct-17 11:00N 35°23' E 139°41'1 2.5
2017-Oct-17 10:30N 35°24' E 139°39'1 1.1
2017-Oct-17 10:00N 35°23' E 139°40'0 0.0
2017-Oct-17 09:30N 35°23' E 139°40'0 0.0
2017-Oct-17 09:00N 35°23' E 139°40'0 0.0
2017-Oct-17 08:30N 35°23' E 139°40'0 0.0
2017-Oct-17 08:00N 35°23' E 139°40'1 1.1
2017-Oct-17 07:30N 35°23' E 139°40'611.2
2017-Oct-17 07:00N 35°18' E 139°43'611.0
2017-Oct-17 06:30N 35°13' E 139°46'5 8.5
2017-Oct-17 05:57N 35°17' E 139°45'512.3
2017-Oct-17 05:30N 35°22' E 139°42'510.5
2017-Oct-17 05:01N 35°27' E 139°45'1 1.1
2017-Oct-17 04:30N 35°28' E 139°44'0 0.7
2017-Oct-17 04:00N 35°28' E 139°44'0 0.0
2017-Oct-17 03:30N 35°28' E 139°44'0 0.0
2017-Oct-17 03:00N 35°28' E 139°44'2 3.0
2017-Oct-17 02:30N 35°27' E 139°46'1 1.9
2017-Oct-17 02:00N 35°27' E 139°47'2 3.2
2017-Oct-17 01:30N 35°26' E 139°47'510.2
2017-Oct-17 01:00N 35°21' E 139°45'5 9.7
2017-Oct-17 00:30N 35°16' E 139°46'510.1
2017-Oct-17 00:00N 35°11' E 139°47'1 1.4
2017-Oct-16 23:31N 35°11' E 139°47'4 7.0
2017-Oct-16 23:00N 35°14' E 139°46'510.1
2017-Oct-16 22:30N 35°18' E 139°43'1 2.6
2017-Oct-16 22:00N 35°18' E 139°44'611.9
2017-Oct-16 21:30N 35°13' E 139°47'3 5.3
2017-Oct-16 21:00N 35°10' E 139°47'3 6.2
2017-Oct-16 20:30N 35°13' E 139°46'510.9
2017-Oct-16 20:00N 35°18' E 139°43'2 3.4
2017-Oct-16 19:30N 35°17' E 139°41'0 0.0
2017-Oct-16 19:00N 35°17' E 139°41'0 0.0
2017-Oct-16 18:30N 35°17' E 139°41'0 0.0
2017-Oct-16 18:00N 35°17' E 139°41'0 0.0
2017-Oct-16 17:30N 35°17' E 139°41'0 0.0
2017-Oct-16 16:59N 35°17' E 139°41'0 0.0
2017-Oct-16 16:30N 35°17' E 139°41'0 0.0
2017-Oct-16 15:51N 35°17' E 139°41'0 0.0
2017-Oct-16 15:30N 35°17' E 139°41'0 0.0
2017-Oct-16 15:00N 35°17' E 139°41'0 0.0
2017-Oct-16 14:27N 35°17' E 139°41'0 0.0
2017-Oct-16 13:26N 35°17' E 139°41'0 0.0
2017-Oct-16 12:59N 35°17' E 139°41'0 0.0
2017-Oct-16 12:30N 35°17' E 139°41'0 0.0
2017-Oct-16 11:52N 35°17' E 139°41'0 0.0
2017-Oct-16 11:30N 35°17' E 139°41'0 0.0
2017-Oct-16 10:59N 35°17' E 139°41'0 0.0
2017-Oct-16 10:30N 35°17' E 139°41'0 0.0
2017-Oct-16 10:00N 35°17' E 139°41'0 0.0
2017-Oct-16 09:27N 35°17' E 139°41'0 0.0
2017-Oct-16 09:00N 35°17' E 139°41'0 0.0
2017-Oct-16 08:28N 35°17' E 139°41'0 0.0
2017-Oct-16 08:00N 35°17' E 139°41'0 0.0
2017-Oct-16 07:29N 35°17' E 139°41'0 0.0
2017-Oct-16 07:00N 35°17' E 139°41'0 0.0
2017-Oct-16 06:30N 35°17' E 139°41'0 0.0
2017-Oct-16 06:00N 35°17' E 139°41'0 0.0
2017-Oct-16 05:30N 35°17' E 139°41'0 0.0
2017-Oct-16 05:00N 35°17' E 139°41'0 0.0
2017-Oct-16 04:30N 35°17' E 139°41'0 0.0
2017-Oct-16 04:00N 35°17' E 139°41'0 0.0
2017-Oct-16 03:30N 35°17' E 139°41'0 0.0
2017-Oct-16 03:00N 35°17' E 139°41'0 0.0
2017-Oct-16 02:30N 35°17' E 139°41'4 7.9
2017-Oct-16 02:00N 35°21' E 139°41'611.6
2017-Oct-16 01:30N 35°25' E 139°46'612.5
2017-Oct-16 01:00N 35°30' E 139°52'2 3.6
2017-Oct-16 00:30N 35°28' E 139°51'611.6
2017-Oct-16 00:00N 35°24' E 139°46'611.7
2017-Oct-15 23:30N 35°18' E 139°45'611.3
2017-Oct-15 23:00N 35°12' E 139°47'1 2.5
2017-Oct-15 22:31N 35°11' E 139°47'510.6
2017-Oct-15 22:00N 35°16' E 139°45'3 6.9
2017-Oct-15 21:30N 35°17' E 139°41'0 0.0
2017-Oct-15 21:01N 35°17' E 139°41'0 0.0
2017-Oct-15 20:30N 35°17' E 139°41'0 0.0
2017-Oct-15 20:00N 35°17' E 139°41'0 0.0
2017-Oct-15 19:30N 35°17' E 139°41'0 0.0
2017-Oct-15 19:01N 35°17' E 139°41'0 0.0
2017-Oct-15 18:31N 35°17' E 139°41'0 0.0
2017-Oct-15 18:00N 35°17' E 139°41'0 0.0
2017-Oct-15 17:30N 35°17' E 139°41'0 0.0
2017-Oct-15 17:01N 35°17' E 139°41'0 0.0
2017-Oct-15 16:31N 35°17' E 139°41'0 0.0
2017-Oct-15 16:00N 35°17' E 139°41'0 0.0
2017-Oct-15 15:30N 35°17' E 139°41'0 0.0
2017-Oct-15 15:00N 35°17' E 139°41'0 0.0
2017-Oct-15 14:00N 35°17' E 139°41'0 0.0
2017-Oct-15 13:30N 35°17' E 139°41'0 0.0
2017-Oct-15 13:00N 35°17' E 139°41'0 0.0
2017-Oct-15 12:31N 35°17' E 139°41'0 0.0
2017-Oct-15 12:01N 35°17' E 139°41'0 0.0
2017-Oct-15 11:30N 35°17' E 139°41'0 0.0
2017-Oct-15 11:00N 35°17' E 139°41'0 0.0
2017-Oct-15 10:30N 35°17' E 139°41'0 0.0
2017-Oct-15 10:01N 35°17' E 139°41'0 0.0
2017-Oct-15 09:30N 35°17' E 139°41'0 0.0
2017-Oct-15 09:00N 35°17' E 139°41'4 8.8
2017-Oct-15 08:30N 35°15' E 139°45'1 2.8
2017-Oct-15 08:00N 35°14' E 139°46'612.4
2017-Oct-15 07:30N 35°19' E 139°43'510.3
2017-Oct-15 07:00N 35°25' E 139°43'1 3.0
2017-Oct-15 06:30N 35°24' E 139°45'0 0.1
2017-Oct-15 06:00N 35°24' E 139°45'0 0.1
2017-Oct-15 05:30N 35°24' E 139°45'0 0.0
2017-Oct-15 05:00N 35°24' E 139°45'1 2.1
2017-Oct-15 04:30N 35°25' E 139°44'3 6.1
2017-Oct-15 04:00N 35°22' E 139°43'611.9
2017-Oct-15 03:30N 35°16' E 139°46'611.9
2017-Oct-15 03:00N 35°11' E 139°47'3 5.2
2017-Oct-15 02:30N 35°13' E 139°46'4 9.1
2017-Oct-15 02:00N 35°17' E 139°43'2 4.9
2017-Oct-15 01:30N 35°17' E 139°41'0 0.0
2017-Oct-15 01:00N 35°17' E 139°41'0 0.1
2017-Oct-15 00:30N 35°17' E 139°41'0 0.1
2017-Oct-15 00:00N 35°17' E 139°41'0 0.0
2017-Oct-14 23:30N 35°17' E 139°41'0 0.1
2017-Oct-14 23:00N 35°17' E 139°41'0 0.0
2017-Oct-14 22:30N 35°17' E 139°41'0 0.0
2017-Oct-14 22:00N 35°17' E 139°41'0 0.0
2017-Oct-14 21:30N 35°17' E 139°41'0 0.0
2017-Oct-14 21:00N 35°17' E 139°41'0 0.0
2017-Oct-14 20:29N 35°17' E 139°41'0 0.0
2017-Oct-14 20:00N 35°17' E 139°41'0 0.0
2017-Oct-14 19:30N 35°17' E 139°41'0 0.0
2017-Oct-14 19:00N 35°17' E 139°41'0 0.0
2017-Oct-14 18:30N 35°17' E 139°41'0 0.0
2017-Oct-14 18:00N 35°17' E 139°41'0 0.0
2017-Oct-14 17:30N 35°17' E 139°41'0 0.0
2017-Oct-14 17:00N 35°17' E 139°41'0 0.0
2017-Oct-14 16:30N 35°17' E 139°41'0 0.0
2017-Oct-14 16:00N 35°17' E 139°41'0 0.0
2017-Oct-14 15:30N 35°17' E 139°41'0 0.0
2017-Oct-14 15:00N 35°17' E 139°41'0 0.0
2017-Oct-14 14:30N 35°17' E 139°41'0 0.0
2017-Oct-14 14:00N 35°17' E 139°41'0 0.0
2017-Oct-14 13:30N 35°17' E 139°41'0 0.0
2017-Oct-14 13:00N 35°17' E 139°41'0 0.0
2017-Oct-14 12:30N 35°17' E 139°41'0 0.0
2017-Oct-14 12:00N 35°17' E 139°41'0 0.0
2017-Oct-14 11:30N 35°17' E 139°41'0 0.0
2017-Oct-14 11:00N 35°17' E 139°41'0 0.0
2017-Oct-14 10:30N 35°17' E 139°41'0 0.0
2017-Oct-14 10:00N 35°17' E 139°41'0 0.0
2017-Oct-14 09:30N 35°17' E 139°41'0 0.0
2017-Oct-14 09:00N 35°17' E 139°41'0 0.0
2017-Oct-14 08:29N 35°17' E 139°41'0 0.0
2017-Oct-14 08:00N 35°17' E 139°41'0 0.0
2017-Oct-14 07:30N 35°17' E 139°41'0 0.0
2017-Oct-14 07:00N 35°17' E 139°41'0 0.0
2017-Oct-14 06:30N 35°17' E 139°41'0 0.0
2017-Oct-14 05:59N 35°17' E 139°41'0 0.0
2017-Oct-14 05:30N 35°17' E 139°41'2 3.4
2017-Oct-14 05:00N 35°18' E 139°43'510.0
2017-Oct-14 04:30N 35°13' E 139°46'4 7.0
2017-Oct-14 04:00N 35°17' E 139°45'713.2
2017-Oct-14 03:31N 35°23' E 139°42'714.7
2017-Oct-14 03:00N 35°28' E 139°49'7 7.8
2017-Oct-14 02:03N 35°29' E 139°58'0 0.1
2017-Oct-14 01:56N 35°29' E 139°58'2 3.4
2017-Oct-14 01:21N 35°29' E 139°56'3 5.5
2017-Oct-14 00:53N 35°29' E 139°52'4 9.6
2017-Oct-14 00:29N 35°26' E 139°49'511.4
2017-Oct-14 00:00N 35°22' E 139°45'510.9
2017-Oct-13 23:30N 35°16' E 139°46'610.8
2017-Oct-13 23:00N 35°11' E 139°47'1 1.5
2017-Oct-13 22:30N 35°10' E 139°47'5 9.0
2017-Oct-13 22:00N 35°15' E 139°46'5 9.4
2017-Oct-13 21:30N 35°17' E 139°41'0 0.5
2017-Oct-13 21:00N 35°17' E 139°41'0 0.0
2017-Oct-13 20:30N 35°17' E 139°41'0 0.0
2017-Oct-13 20:01N 35°17' E 139°41'0 0.0
2017-Oct-13 19:30N 35°17' E 139°41'0 0.0
2017-Oct-13 19:00N 35°17' E 139°41'0 0.0
2017-Oct-13 18:30N 35°17' E 139°41'0 0.0
2017-Oct-13 18:01N 35°17' E 139°41'0 0.0
2017-Oct-13 17:30N 35°17' E 139°41'0 0.0
2017-Oct-13 17:01N 35°17' E 139°41'0 0.0
2017-Oct-13 16:30N 35°17' E 139°41'0 0.0
2017-Oct-13 16:01N 35°17' E 139°41'0 0.0
2017-Oct-13 15:30N 35°17' E 139°41'0 0.0
2017-Oct-13 15:00N 35°17' E 139°41'0 0.0
2017-Oct-13 14:30N 35°17' E 139°41'0 0.0
2017-Oct-13 14:00N 35°17' E 139°41'0 0.0
2017-Oct-13 13:31N 35°17' E 139°41'0 0.0
2017-Oct-13 13:00N 35°17' E 139°41'0 0.0
2017-Oct-13 12:30N 35°17' E 139°41'0 0.0
2017-Oct-13 12:00N 35°17' E 139°41'0 0.0
2017-Oct-13 11:31N 35°17' E 139°41'0 0.0
2017-Oct-13 11:00N 35°17' E 139°41'0 0.0
2017-Oct-13 10:30N 35°17' E 139°41'0 0.0
2017-Oct-13 10:00N 35°17' E 139°41'0 0.0
2017-Oct-13 09:31N 35°17' E 139°41'0 0.0
2017-Oct-13 09:01N 35°17' E 139°41'0 0.0
2017-Oct-13 08:30N 35°17' E 139°41'0 0.0
2017-Oct-13 08:01N 35°17' E 139°41'0 0.0
2017-Oct-13 07:30N 35°17' E 139°41'0 0.0
2017-Oct-13 07:01N 35°17' E 139°41'0 0.0
2017-Oct-13 06:30N 35°17' E 139°41'0 0.0
2017-Oct-13 06:00N 35°17' E 139°41'0 0.0
2017-Oct-13 05:31N 35°17' E 139°41'0 0.0
2017-Oct-13 05:00N 35°17' E 139°41'0 0.0
2017-Oct-13 04:30N 35°17' E 139°41'0 0.0
2017-Oct-13 04:00N 35°17' E 139°41'0 0.0
2017-Oct-13 03:30N 35°17' E 139°41'0 0.0
2017-Oct-13 03:00N 35°17' E 139°41'0 0.1
2017-Oct-13 02:30N 35°17' E 139°41'1 2.4
2017-Oct-13 02:00N 35°17' E 139°39'0 0.1
2017-Oct-13 01:30N 35°17' E 139°39'0 0.1
2017-Oct-13 01:00N 35°17' E 139°39'1 2.3
2017-Oct-13 00:31N 35°18' E 139°40'1 1.4
2017-Oct-13 00:00N 35°19' E 139°40'2 3.2
2017-Oct-12 23:30N 35°17' E 139°41'1 1.4
2017-Oct-12 23:00N 35°17' E 139°41'0 0.0
2017-Oct-12 22:30N 35°17' E 139°41'0 0.0
2017-Oct-12 22:01N 35°17' E 139°41'0 0.0
2017-Oct-12 21:30N 35°17' E 139°41'0 0.0
2017-Oct-12 21:00N 35°17' E 139°41'0 0.0
2017-Oct-12 20:30N 35°17' E 139°41'0 0.0
2017-Oct-12 20:00N 35°17' E 139°41'0 0.0
2017-Oct-12 19:30N 35°17' E 139°41'0 0.0
2017-Oct-12 19:00N 35°17' E 139°41'0 0.0
2017-Oct-12 18:30N 35°17' E 139°41'0 0.0
2017-Oct-12 17:58N 35°17' E 139°41'0 0.0
2017-Oct-12 17:30N 35°17' E 139°41'0 0.0
2017-Oct-12 16:59N 35°17' E 139°41'0 0.0
2017-Oct-12 16:30N 35°17' E 139°41'0 0.0
2017-Oct-12 16:00N 35°17' E 139°41'0 0.0
2017-Oct-12 15:31N 35°17' E 139°41'0 0.0
2017-Oct-12 15:00N 35°17' E 139°41'0 0.0
2017-Oct-12 14:30N 35°17' E 139°41'0 0.0
2017-Oct-12 13:59N 35°17' E 139°41'0 0.0
2017-Oct-12 13:30N 35°17' E 139°41'0 0.0
2017-Oct-12 13:00N 35°17' E 139°41'0 0.0
2017-Oct-12 12:30N 35°17' E 139°41'0 0.0
2017-Oct-12 12:01N 35°17' E 139°41'0 0.0
2017-Oct-12 11:30N 35°17' E 139°41'0 0.0
2017-Oct-12 10:50N 35°17' E 139°41'0 0.0
2017-Oct-12 10:20N 35°17' E 139°41'0 0.0
2017-Oct-12 09:56N 35°17' E 139°41'0 0.0
2017-Oct-12 09:30N 35°17' E 139°41'0 0.0
2017-Oct-12 09:00N 35°17' E 139°41'0 0.0
2017-Oct-12 08:30N 35°17' E 139°41'0 0.0
2017-Oct-12 08:00N 35°17' E 139°41'0 0.0
2017-Oct-12 07:30N 35°17' E 139°41'0 0.0
2017-Oct-12 07:01N 35°17' E 139°41'0 0.3
2017-Oct-12 06:31N 35°17' E 139°41'2 3.1
2017-Oct-12 06:00N 35°18' E 139°42'1 2.0
2017-Oct-12 05:30N 35°17' E 139°41'1 1.3
2017-Oct-12 04:58N 35°17' E 139°41'0 0.0
2017-Oct-12 04:28N 35°17' E 139°41'1 2.1
2017-Oct-12 04:00N 35°18' E 139°42'5 9.8
2017-Oct-12 03:30N 35°14' E 139°46'2 3.6
2017-Oct-12 03:00N 35°16' E 139°46'612.7
2017-Oct-12 02:30N 35°21' E 139°42'611.1
2017-Oct-12 02:00N 35°27' E 139°43'1 1.1
2017-Oct-12 01:30N 35°27' E 139°43'0 0.2
2017-Oct-12 01:00N 35°27' E 139°43'5 8.7
2017-Oct-12 00:25N 35°22' E 139°42'511.1
2017-Oct-12 00:00N 35°18' E 139°42'6 0.3
2017-Oct-11 00:00N 35°23' E 139°46'4 7.2
2017-Oct-10 23:30N 35°19' E 139°44'510.1
2017-Oct-10 23:00N 35°15' E 139°47'510.8
2017-Oct-10 22:30N 35°10' E 139°47'4 8.8
2017-Oct-10 22:00N 35°13' E 139°43'0 0.4
2017-Oct-10 21:30N 35°13' E 139°43'3 5.6
2017-Oct-10 21:00N 35°14' E 139°46'612.1
2017-Oct-10 20:30N 35°19' E 139°43'5 7.2
2017-Oct-10 19:49N 35°24' E 139°44'4 9.6
2017-Oct-10 19:26N 35°21' E 139°43'4 0.5
2017-Oct-10 12:24N 35°17' E 139°41'4 9.2
2017-Oct-10 12:00N 35°16' E 139°45'3 5.3
2017-Oct-10 11:30N 35°13' E 139°46'612.0
2017-Oct-10 11:00N 35°19' E 139°43'5 9.0
2017-Oct-10 10:27N 35°23' E 139°41'0 1.0
2017-Oct-10 09:59N 35°23' E 139°40'0 0.1
2017-Oct-10 07:29N 35°23' E 139°40'0 0.0
2017-Oct-10 07:00N 35°23' E 139°40'0 0.0
2017-Oct-10 06:30N 35°23' E 139°40'0 0.0
2017-Oct-10 06:00N 35°23' E 139°40'1 2.1
2017-Oct-10 05:30N 35°23' E 139°41'611.1
2017-Oct-10 05:00N 35°27' E 139°46'510.8
2017-Oct-10 04:30N 35°30' E 139°52'3 6.5
2017-Oct-10 04:00N 35°27' E 139°50'612.7
2017-Oct-10 03:30N 35°22' E 139°45'510.8
2017-Oct-10 03:00N 35°17' E 139°46'611.3
2017-Oct-10 02:30N 35°11' E 139°46'1 2.7
2017-Oct-10 02:00N 35°12' E 139°46'510.7
2017-Oct-10 01:30N 35°17' E 139°43'2 4.8
2017-Oct-10 01:00N 35°17' E 139°41'0 0.0
2017-Oct-10 00:30N 35°17' E 139°41'0 0.0
2017-Oct-10 00:00N 35°17' E 139°41'0 0.0
2017-Oct-09 23:28N 35°17' E 139°41'0 0.0
2017-Oct-09 23:00N 35°17' E 139°41'0 0.0
2017-Oct-09 22:30N 35°17' E 139°41'  

Dump ship's entire track history